sensor_id;sensor_type;location;lat;lon;timestamp;P1;durP1;ratioP1;P2;durP2;ratioP2
3573;SDS011;1801;51.050;6.246;2023-03-14T00:00:30;4.03;;;0.93;;
3573;SDS011;1801;51.050;6.246;2023-03-14T00:02:55;5.70;;;2.00;;
3573;SDS011;1801;51.050;6.246;2023-03-14T00:05:20;6.03;;;1.77;;
3573;SDS011;1801;51.050;6.246;2023-03-14T00:07:45;3.23;;;0.90;;
3573;SDS011;1801;51.050;6.246;2023-03-14T00:10:12;4.60;;;0.97;;
3573;SDS011;1801;51.050;6.246;2023-03-14T00:12:38;8.43;;;0.80;;
3573;SDS011;1801;51.050;6.246;2023-03-14T00:15:04;8.77;;;0.90;;
3573;SDS011;1801;51.050;6.246;2023-03-14T00:17:31;4.17;;;0.93;;
3573;SDS011;1801;51.050;6.246;2023-03-14T00:19:57;6.70;;;1.67;;
3573;SDS011;1801;51.050;6.246;2023-03-14T00:22:22;3.43;;;1.63;;
3573;SDS011;1801;51.050;6.246;2023-03-14T00:24:47;2.70;;;0.60;;
3573;SDS011;1801;51.050;6.246;2023-03-14T00:27:12;3.20;;;0.87;;
3573;SDS011;1801;51.050;6.246;2023-03-14T00:29:38;2.30;;;0.50;;
3573;SDS011;1801;51.050;6.246;2023-03-14T00:32:03;3.87;;;1.07;;
3573;SDS011;1801;51.050;6.246;2023-03-14T00:34:29;1.70;;;0.63;;
3573;SDS011;1801;51.050;6.246;2023-03-14T00:36:54;1.97;;;0.60;;
3573;SDS011;1801;51.050;6.246;2023-03-14T00:39:19;1.40;;;0.70;;
3573;SDS011;1801;51.050;6.246;2023-03-14T00:41:44;1.37;;;0.53;;
3573;SDS011;1801;51.050;6.246;2023-03-14T00:44:10;2.83;;;0.60;;
3573;SDS011;1801;51.050;6.246;2023-03-14T00:46:35;1.10;;;0.80;;
3573;SDS011;1801;51.050;6.246;2023-03-14T00:49:00;6.30;;;1.03;;
3573;SDS011;1801;51.050;6.246;2023-03-14T00:51:25;5.90;;;0.90;;
3573;SDS011;1801;51.050;6.246;2023-03-14T00:53:50;6.57;;;1.37;;
3573;SDS011;1801;51.050;6.246;2023-03-14T00:56:16;4.33;;;1.20;;
3573;SDS011;1801;51.050;6.246;2023-03-14T00:58:41;1.47;;;1.07;;
3573;SDS011;1801;51.050;6.246;2023-03-14T01:01:10;9.53;;;1.17;;
3573;SDS011;1801;51.050;6.246;2023-03-14T01:03:37;4.63;;;0.80;;
3573;SDS011;1801;51.050;6.246;2023-03-14T01:06:09;4.93;;;1.03;;
3573;SDS011;1801;51.050;6.246;2023-03-14T01:08:35;5.13;;;1.20;;
3573;SDS011;1801;51.050;6.246;2023-03-14T01:11:04;2.70;;;0.83;;
3573;SDS011;1801;51.050;6.246;2023-03-14T01:13:29;6.43;;;2.00;;
3573;SDS011;1801;51.050;6.246;2023-03-14T01:15:54;8.00;;;1.57;;
3573;SDS011;1801;51.050;6.246;2023-03-14T01:18:19;3.30;;;1.10;;
3573;SDS011;1801;51.050;6.246;2023-03-14T01:20:45;6.67;;;1.83;;
3573;SDS011;1801;51.050;6.246;2023-03-14T01:23:10;7.90;;;0.97;;
3573;SDS011;1801;51.050;6.246;2023-03-14T01:25:35;3.07;;;1.13;;
3573;SDS011;1801;51.050;6.246;2023-03-14T01:28:05;4.43;;;1.27;;
3573;SDS011;1801;51.050;6.246;2023-03-14T01:30:30;3.13;;;1.30;;
3573;SDS011;1801;51.050;6.246;2023-03-14T01:32:55;3.27;;;0.83;;
3573;SDS011;1801;51.050;6.246;2023-03-14T01:35:20;5.03;;;1.53;;
3573;SDS011;1801;51.050;6.246;2023-03-14T01:37:46;11.77;;;1.40;;
3573;SDS011;1801;51.050;6.246;2023-03-14T01:40:11;3.20;;;0.97;;
3573;SDS011;1801;51.050;6.246;2023-03-14T01:42:43;5.13;;;1.50;;
3573;SDS011;1801;51.050;6.246;2023-03-14T01:47:52;3.93;;;1.33;;
3573;SDS011;1801;51.050;6.246;2023-03-14T01:50:18;4.10;;;1.60;;
3573;SDS011;1801;51.050;6.246;2023-03-14T01:52:44;5.40;;;2.17;;
3573;SDS011;1801;51.050;6.246;2023-03-14T01:55:17;4.95;;;1.20;;
3573;SDS011;1801;51.050;6.246;2023-03-14T01:57:44;2.45;;;1.58;;
3573;SDS011;1801;51.050;6.246;2023-03-14T02:00:14;3.07;;;1.40;;
3573;SDS011;1801;51.050;6.246;2023-03-14T02:02:41;3.97;;;1.23;;
3573;SDS011;1801;51.050;6.246;2023-03-14T02:05:08;4.53;;;1.40;;
3573;SDS011;1801;51.050;6.246;2023-03-14T02:07:35;2.70;;;1.30;;
3573;SDS011;1801;51.050;6.246;2023-03-14T02:10:02;10.10;;;1.20;;
3573;SDS011;1801;51.050;6.246;2023-03-14T02:12:28;7.47;;;0.90;;
3573;SDS011;1801;51.050;6.246;2023-03-14T02:14:53;6.67;;;1.20;;
3573;SDS011;1801;51.050;6.246;2023-03-14T02:17:18;4.40;;;1.17;;
3573;SDS011;1801;51.050;6.246;2023-03-14T02:22:13;6.30;;;1.00;;
3573;SDS011;1801;51.050;6.246;2023-03-14T02:24:42;9.00;;;1.30;;
3573;SDS011;1801;51.050;6.246;2023-03-14T02:27:12;10.73;;;1.53;;
3573;SDS011;1801;51.050;6.246;2023-03-14T02:29:39;4.30;;;2.20;;
3573;SDS011;1801;51.050;6.246;2023-03-14T02:32:06;3.20;;;1.57;;
3573;SDS011;1801;51.050;6.246;2023-03-14T02:34:31;2.33;;;0.90;;
3573;SDS011;1801;51.050;6.246;2023-03-14T02:36:57;4.97;;;1.37;;
3573;SDS011;1801;51.050;6.246;2023-03-14T02:39:24;3.07;;;0.93;;
3573;SDS011;1801;51.050;6.246;2023-03-14T02:41:52;6.33;;;1.30;;
3573;SDS011;1801;51.050;6.246;2023-03-14T02:44:17;3.60;;;1.23;;
3573;SDS011;1801;51.050;6.246;2023-03-14T02:46:43;5.53;;;1.87;;
3573;SDS011;1801;51.050;6.246;2023-03-14T02:49:08;11.60;;;1.47;;
3573;SDS011;1801;51.050;6.246;2023-03-14T02:51:35;6.90;;;1.50;;
3573;SDS011;1801;51.050;6.246;2023-03-14T02:54:00;9.53;;;2.77;;
3573;SDS011;1801;51.050;6.246;2023-03-14T02:56:26;5.10;;;1.23;;
3573;SDS011;1801;51.050;6.246;2023-03-14T02:58:51;5.30;;;1.50;;
3573;SDS011;1801;51.050;6.246;2023-03-14T03:01:16;12.77;;;1.57;;
3573;SDS011;1801;51.050;6.246;2023-03-14T03:03:41;8.80;;;2.40;;
3573;SDS011;1801;51.050;6.246;2023-03-14T03:06:07;3.47;;;1.37;;
3573;SDS011;1801;51.050;6.246;2023-03-14T03:08:32;8.90;;;1.50;;
3573;SDS011;1801;51.050;6.246;2023-03-14T03:10:57;2.40;;;1.10;;
3573;SDS011;1801;51.050;6.246;2023-03-14T03:13:23;5.87;;;1.73;;
3573;SDS011;1801;51.050;6.246;2023-03-14T03:15:48;5.03;;;0.83;;
3573;SDS011;1801;51.050;6.246;2023-03-14T03:18:13;5.70;;;0.80;;
3573;SDS011;1801;51.050;6.246;2023-03-14T03:20:38;5.50;;;1.20;;
3573;SDS011;1801;51.050;6.246;2023-03-14T03:23:04;9.97;;;1.50;;
3573;SDS011;1801;51.050;6.246;2023-03-14T03:25:29;5.13;;;1.07;;
3573;SDS011;1801;51.050;6.246;2023-03-14T03:27:54;3.13;;;0.93;;
3573;SDS011;1801;51.050;6.246;2023-03-14T03:30:20;1.10;;;1.00;;
3573;SDS011;1801;51.050;6.246;2023-03-14T03:32:45;8.00;;;2.40;;
3573;SDS011;1801;51.050;6.246;2023-03-14T03:35:10;5.13;;;1.17;;
3573;SDS011;1801;51.050;6.246;2023-03-14T03:37:35;5.50;;;1.70;;
3573;SDS011;1801;51.050;6.246;2023-03-14T03:40:00;6.00;;;1.90;;
3573;SDS011;1801;51.050;6.246;2023-03-14T03:42:26;6.93;;;1.93;;
3573;SDS011;1801;51.050;6.246;2023-03-14T03:44:51;9.70;;;1.77;;
3573;SDS011;1801;51.050;6.246;2023-03-14T03:47:16;12.57;;;3.10;;
3573;SDS011;1801;51.050;6.246;2023-03-14T03:49:42;8.20;;;1.70;;
3573;SDS011;1801;51.050;6.246;2023-03-14T03:52:07;7.73;;;1.77;;
3573;SDS011;1801;51.050;6.246;2023-03-14T03:54:32;8.27;;;1.50;;
3573;SDS011;1801;51.050;6.246;2023-03-14T03:56:57;9.13;;;1.33;;
3573;SDS011;1801;51.050;6.246;2023-03-14T03:59:23;6.17;;;1.47;;
3573;SDS011;1801;51.050;6.246;2023-03-14T04:01:48;2.40;;;1.07;;
3573;SDS011;1801;51.050;6.246;2023-03-14T04:04:13;4.80;;;0.90;;
3573;SDS011;1801;51.050;6.246;2023-03-14T04:06:38;2.30;;;1.23;;
3573;SDS011;1801;51.050;6.246;2023-03-14T04:09:05;3.60;;;0.97;;
3573;SDS011;1801;51.050;6.246;2023-03-14T04:11:30;3.93;;;0.83;;
3573;SDS011;1801;51.050;6.246;2023-03-14T04:13:55;6.40;;;1.40;;
3573;SDS011;1801;51.050;6.246;2023-03-14T04:16:21;2.10;;;0.60;;
3573;SDS011;1801;51.050;6.246;2023-03-14T04:18:47;3.50;;;0.67;;
3573;SDS011;1801;51.050;6.246;2023-03-14T04:21:12;2.93;;;0.80;;
3573;SDS011;1801;51.050;6.246;2023-03-14T04:23:37;4.73;;;0.90;;
3573;SDS011;1801;51.050;6.246;2023-03-14T04:26:03;0.80;;;0.60;;
3573;SDS011;1801;51.050;6.246;2023-03-14T04:28:28;4.17;;;1.20;;
3573;SDS011;1801;51.050;6.246;2023-03-14T04:30:53;1.90;;;0.67;;
3573;SDS011;1801;51.050;6.246;2023-03-14T04:33:19;0.60;;;0.60;;
3573;SDS011;1801;51.050;6.246;2023-03-14T04:35:44;1.00;;;0.40;;
3573;SDS011;1801;51.050;6.246;2023-03-14T04:38:10;1.00;;;0.40;;
3573;SDS011;1801;51.050;6.246;2023-03-14T04:40:38;1.60;;;0.53;;
3573;SDS011;1801;51.050;6.246;2023-03-14T04:43:04;2.35;;;1.02;;
3573;SDS011;1801;51.050;6.246;2023-03-14T04:45:29;0.50;;;0.37;;
3573;SDS011;1801;51.050;6.246;2023-03-14T04:47:54;2.97;;;0.40;;
3573;SDS011;1801;51.050;6.246;2023-03-14T04:50:19;1.37;;;0.40;;
3573;SDS011;1801;51.050;6.246;2023-03-14T04:52:45;0.30;;;0.30;;
3573;SDS011;1801;51.050;6.246;2023-03-14T04:55:10;4.20;;;0.60;;
3573;SDS011;1801;51.050;6.246;2023-03-14T04:57:35;0.40;;;0.30;;
3573;SDS011;1801;51.050;6.246;2023-03-14T05:00:01;0.63;;;0.50;;
3573;SDS011;1801;51.050;6.246;2023-03-14T05:02:26;1.60;;;0.40;;
3573;SDS011;1801;51.050;6.246;2023-03-14T05:04:51;1.53;;;0.40;;
3573;SDS011;1801;51.050;6.246;2023-03-14T05:07:16;0.60;;;0.60;;
3573;SDS011;1801;51.050;6.246;2023-03-14T05:09:42;5.23;;;0.50;;
3573;SDS011;1801;51.050;6.246;2023-03-14T05:12:07;0.73;;;0.37;;
3573;SDS011;1801;51.050;6.246;2023-03-14T05:14:33;0.40;;;0.30;;
3573;SDS011;1801;51.050;6.246;2023-03-14T05:16:58;0.40;;;0.40;;
3573;SDS011;1801;51.050;6.246;2023-03-14T05:19:23;1.33;;;0.40;;
3573;SDS011;1801;51.050;6.246;2023-03-14T05:21:49;0.30;;;0.30;;
3573;SDS011;1801;51.050;6.246;2023-03-14T05:24:14;0.40;;;0.30;;
3573;SDS011;1801;51.050;6.246;2023-03-14T05:26:39;1.50;;;1.03;;
3573;SDS011;1801;51.050;6.246;2023-03-14T05:29:04;0.60;;;0.60;;
3573;SDS011;1801;51.050;6.246;2023-03-14T05:31:29;0.50;;;0.40;;
3573;SDS011;1801;51.050;6.246;2023-03-14T05:33:55;0.53;;;0.40;;
3573;SDS011;1801;51.050;6.246;2023-03-14T05:36:20;3.70;;;0.47;;
3573;SDS011;1801;51.050;6.246;2023-03-14T05:38:45;0.40;;;0.30;;
3573;SDS011;1801;51.050;6.246;2023-03-14T05:41:11;0.40;;;0.30;;
3573;SDS011;1801;51.050;6.246;2023-03-14T05:43:36;0.40;;;0.37;;
3573;SDS011;1801;51.050;6.246;2023-03-14T05:46:01;0.60;;;0.40;;
3573;SDS011;1801;51.050;6.246;2023-03-14T05:48:26;0.60;;;0.30;;
3573;SDS011;1801;51.050;6.246;2023-03-14T05:50:55;1.47;;;0.30;;
3573;SDS011;1801;51.050;6.246;2023-03-14T05:53:20;0.32;;;0.32;;
3573;SDS011;1801;51.050;6.246;2023-03-14T05:55:46;0.70;;;0.40;;
3573;SDS011;1801;51.050;6.246;2023-03-14T05:58:11;0.30;;;0.30;;
3573;SDS011;1801;51.050;6.246;2023-03-14T06:00:36;0.50;;;0.30;;
3573;SDS011;1801;51.050;6.246;2023-03-14T06:03:01;0.60;;;0.50;;
3573;SDS011;1801;51.050;6.246;2023-03-14T06:05:26;0.37;;;0.30;;
3573;SDS011;1801;51.050;6.246;2023-03-14T06:07:51;0.30;;;0.30;;
3573;SDS011;1801;51.050;6.246;2023-03-14T06:10:17;0.50;;;0.30;;
3573;SDS011;1801;51.050;6.246;2023-03-14T06:12:42;0.37;;;0.30;;
3573;SDS011;1801;51.050;6.246;2023-03-14T06:15:07;0.40;;;0.30;;
3573;SDS011;1801;51.050;6.246;2023-03-14T06:17:33;0.37;;;0.33;;
3573;SDS011;1801;51.050;6.246;2023-03-14T06:19:58;0.30;;;0.30;;
3573;SDS011;1801;51.050;6.246;2023-03-14T06:22:23;0.40;;;0.30;;
3573;SDS011;1801;51.050;6.246;2023-03-14T06:24:48;0.30;;;0.30;;
3573;SDS011;1801;51.050;6.246;2023-03-14T06:27:14;4.50;;;0.40;;
3573;SDS011;1801;51.050;6.246;2023-03-14T06:29:39;0.40;;;0.30;;
3573;SDS011;1801;51.050;6.246;2023-03-14T06:32:04;0.53;;;0.40;;
3573;SDS011;1801;51.050;6.246;2023-03-14T06:34:30;0.30;;;0.30;;
3573;SDS011;1801;51.050;6.246;2023-03-14T06:36:55;0.97;;;0.30;;
3573;SDS011;1801;51.050;6.246;2023-03-14T06:39:20;0.37;;;0.30;;
3573;SDS011;1801;51.050;6.246;2023-03-14T06:41:45;1.27;;;0.40;;
3573;SDS011;1801;51.050;6.246;2023-03-14T06:44:11;0.37;;;0.30;;
3573;SDS011;1801;51.050;6.246;2023-03-14T06:46:36;0.50;;;0.30;;
3573;SDS011;1801;51.050;6.246;2023-03-14T06:49:01;0.40;;;0.40;;
3573;SDS011;1801;51.050;6.246;2023-03-14T06:51:26;0.40;;;0.33;;
3573;SDS011;1801;51.050;6.246;2023-03-14T06:53:52;0.50;;;0.40;;
3573;SDS011;1801;51.050;6.246;2023-03-14T06:56:17;1.33;;;0.30;;
3573;SDS011;1801;51.050;6.246;2023-03-14T06:58:42;0.50;;;0.50;;
3573;SDS011;1801;51.050;6.246;2023-03-14T07:01:14;0.40;;;0.30;;
3573;SDS011;1801;51.050;6.246;2023-03-14T07:03:42;0.60;;;0.40;;
3573;SDS011;1801;51.050;6.246;2023-03-14T07:06:07;1.70;;;0.30;;
3573;SDS011;1801;51.050;6.246;2023-03-14T07:08:32;0.40;;;0.30;;
3573;SDS011;1801;51.050;6.246;2023-03-14T07:10:58;2.10;;;0.60;;
3573;SDS011;1801;51.050;6.246;2023-03-14T07:13:23;0.50;;;0.40;;
3573;SDS011;1801;51.050;6.246;2023-03-14T07:15:48;1.70;;;0.60;;
3573;SDS011;1801;51.050;6.246;2023-03-14T07:18:13;1.60;;;0.40;;
3573;SDS011;1801;51.050;6.246;2023-03-14T07:20:38;1.77;;;0.70;;
3573;SDS011;1801;51.050;6.246;2023-03-14T07:23:04;1.20;;;0.70;;
3573;SDS011;1801;51.050;6.246;2023-03-14T07:25:29;1.00;;;0.70;;
3573;SDS011;1801;51.050;6.246;2023-03-14T07:27:54;0.73;;;0.60;;
3573;SDS011;1801;51.050;6.246;2023-03-14T07:30:20;0.60;;;0.60;;
3573;SDS011;1801;51.050;6.246;2023-03-14T07:32:45;1.17;;;0.70;;
3573;SDS011;1801;51.050;6.246;2023-03-14T07:35:10;0.97;;;0.60;;
3573;SDS011;1801;51.050;6.246;2023-03-14T07:37:35;0.60;;;0.60;;
3573;SDS011;1801;51.050;6.246;2023-03-14T07:40:01;2.90;;;1.43;;
3573;SDS011;1801;51.050;6.246;2023-03-14T07:42:26;1.10;;;0.70;;
3573;SDS011;1801;51.050;6.246;2023-03-14T07:44:51;1.27;;;0.87;;
3573;SDS011;1801;51.050;6.246;2023-03-14T07:47:16;1.53;;;1.13;;
3573;SDS011;1801;51.050;6.246;2023-03-14T07:49:41;1.57;;;1.40;;
3573;SDS011;1801;51.050;6.246;2023-03-14T07:52:07;0.93;;;0.90;;
3573;SDS011;1801;51.050;6.246;2023-03-14T07:54:32;1.47;;;1.13;;
3573;SDS011;1801;51.050;6.246;2023-03-14T07:56:57;2.80;;;0.97;;
3573;SDS011;1801;51.050;6.246;2023-03-14T07:59:25;0.70;;;0.70;;
3573;SDS011;1801;51.050;6.246;2023-03-14T08:01:50;2.50;;;0.80;;
3573;SDS011;1801;51.050;6.246;2023-03-14T08:04:15;6.03;;;1.00;;
3573;SDS011;1801;51.050;6.246;2023-03-14T08:06:41;1.53;;;0.70;;
3573;SDS011;1801;51.050;6.246;2023-03-14T08:09:06;1.27;;;1.10;;
3573;SDS011;1801;51.050;6.246;2023-03-14T08:11:31;1.17;;;1.03;;
3573;SDS011;1801;51.050;6.246;2023-03-14T08:13:56;0.70;;;0.70;;
3573;SDS011;1801;51.050;6.246;2023-03-14T08:16:22;1.50;;;0.87;;
3573;SDS011;1801;51.050;6.246;2023-03-14T08:18:47;4.77;;;1.63;;
3573;SDS011;1801;51.050;6.246;2023-03-14T08:21:13;1.80;;;0.97;;
3573;SDS011;1801;51.050;6.246;2023-03-14T08:23:38;3.57;;;0.77;;
3573;SDS011;1801;51.050;6.246;2023-03-14T08:26:03;2.47;;;2.27;;
3573;SDS011;1801;51.050;6.246;2023-03-14T08:28:29;0.90;;;0.60;;
3573;SDS011;1801;51.050;6.246;2023-03-14T08:30:58;3.90;;;0.80;;
3573;SDS011;1801;51.050;6.246;2023-03-14T08:33:24;2.70;;;1.00;;
3573;SDS011;1801;51.050;6.246;2023-03-14T08:35:53;2.93;;;0.93;;
3573;SDS011;1801;51.050;6.246;2023-03-14T08:38:18;2.50;;;1.00;;
3573;SDS011;1801;51.050;6.246;2023-03-14T08:40:43;1.30;;;1.00;;
3573;SDS011;1801;51.050;6.246;2023-03-14T08:43:09;2.30;;;1.47;;
3573;SDS011;1801;51.050;6.246;2023-03-14T08:45:34;1.13;;;0.80;;
3573;SDS011;1801;51.050;6.246;2023-03-14T08:47:59;0.60;;;0.47;;
3573;SDS011;1801;51.050;6.246;2023-03-14T08:50:24;0.80;;;0.70;;
3573;SDS011;1801;51.050;6.246;2023-03-14T08:52:50;1.60;;;0.50;;
3573;SDS011;1801;51.050;6.246;2023-03-14T08:55:15;1.87;;;0.80;;
3573;SDS011;1801;51.050;6.246;2023-03-14T08:57:40;0.77;;;0.57;;
3573;SDS011;1801;51.050;6.246;2023-03-14T09:00:06;0.60;;;0.50;;
3573;SDS011;1801;51.050;6.246;2023-03-14T09:02:41;0.90;;;0.63;;
3573;SDS011;1801;51.050;6.246;2023-03-14T09:05:06;0.50;;;0.50;;
3573;SDS011;1801;51.050;6.246;2023-03-14T09:07:32;0.50;;;0.40;;
3573;SDS011;1801;51.050;6.246;2023-03-14T09:09:57;0.67;;;0.40;;
3573;SDS011;1801;51.050;6.246;2023-03-14T09:12:22;1.17;;;0.60;;
3573;SDS011;1801;51.050;6.246;2023-03-14T09:14:47;0.53;;;0.50;;
3573;SDS011;1801;51.050;6.246;2023-03-14T09:17:12;3.03;;;0.97;;
3573;SDS011;1801;51.050;6.246;2023-03-14T09:19:38;0.97;;;0.87;;
3573;SDS011;1801;51.050;6.246;2023-03-14T09:22:03;1.13;;;1.03;;
3573;SDS011;1801;51.050;6.246;2023-03-14T09:24:28;1.30;;;1.00;;
3573;SDS011;1801;51.050;6.246;2023-03-14T09:26:54;1.93;;;1.33;;
3573;SDS011;1801;51.050;6.246;2023-03-14T09:29:20;1.55;;;1.10;;
3573;SDS011;1801;51.050;6.246;2023-03-14T09:31:45;1.27;;;1.00;;
3573;SDS011;1801;51.050;6.246;2023-03-14T09:34:10;1.53;;;1.23;;
3573;SDS011;1801;51.050;6.246;2023-03-14T09:36:36;2.10;;;0.90;;
3573;SDS011;1801;51.050;6.246;2023-03-14T09:39:03;0.90;;;0.70;;
3573;SDS011;1801;51.050;6.246;2023-03-14T09:41:36;1.52;;;0.80;;
3573;SDS011;1801;51.050;6.246;2023-03-14T09:44:04;6.57;;;1.00;;
3573;SDS011;1801;51.050;6.246;2023-03-14T09:46:29;1.13;;;1.02;;
3573;SDS011;1801;51.050;6.246;2023-03-14T09:48:56;1.42;;;0.70;;
3573;SDS011;1801;51.050;6.246;2023-03-14T09:51:22;1.63;;;1.40;;
3573;SDS011;1801;51.050;6.246;2023-03-14T09:53:49;1.00;;;0.60;;
3573;SDS011;1801;51.050;6.246;2023-03-14T09:56:25;0.93;;;0.83;;
3573;SDS011;1801;51.050;6.246;2023-03-14T09:58:53;1.30;;;1.20;;
3573;SDS011;1801;51.050;6.246;2023-03-14T10:01:22;1.00;;;0.80;;
3573;SDS011;1801;51.050;6.246;2023-03-14T10:03:47;3.47;;;1.13;;
3573;SDS011;1801;51.050;6.246;2023-03-14T10:06:13;11.27;;;1.30;;
3573;SDS011;1801;51.050;6.246;2023-03-14T10:08:42;3.07;;;1.30;;
3573;SDS011;1801;51.050;6.246;2023-03-14T10:11:12;4.60;;;2.17;;
3573;SDS011;1801;51.050;6.246;2023-03-14T10:13:46;2.22;;;1.70;;
3573;SDS011;1801;51.050;6.246;2023-03-14T10:16:12;2.95;;;1.42;;
3573;SDS011;1801;51.050;6.246;2023-03-14T10:18:38;3.92;;;2.50;;
3573;SDS011;1801;51.050;6.246;2023-03-14T10:23:39;2.20;;;1.85;;
3573;SDS011;1801;51.050;6.246;2023-03-14T10:26:06;1.70;;;1.60;;
3573;SDS011;1801;51.050;6.246;2023-03-14T10:28:33;5.80;;;1.80;;
3573;SDS011;1801;51.050;6.246;2023-03-14T10:30:59;2.13;;;1.70;;
3573;SDS011;1801;51.050;6.246;2023-03-14T10:33:31;3.53;;;2.30;;
3573;SDS011;1801;51.050;6.246;2023-03-14T10:35:58;5.55;;;2.05;;
3573;SDS011;1801;51.050;6.246;2023-03-14T10:38:28;6.30;;;2.43;;
3573;SDS011;1801;51.050;6.246;2023-03-14T10:40:54;5.68;;;2.28;;
3573;SDS011;1801;51.050;6.246;2023-03-14T10:43:22;4.40;;;2.13;;
3573;SDS011;1801;51.050;6.246;2023-03-14T10:45:56;5.85;;;2.30;;
3573;SDS011;1801;51.050;6.246;2023-03-14T10:50:55;4.88;;;2.50;;
3573;SDS011;1801;51.050;6.246;2023-03-14T10:53:21;5.28;;;2.08;;
3573;SDS011;1801;51.050;6.246;2023-03-14T10:55:46;2.87;;;2.47;;
3573;SDS011;1801;51.050;6.246;2023-03-14T10:58:19;5.40;;;3.50;;
3573;SDS011;1801;51.050;6.246;2023-03-14T11:00:46;2.93;;;2.23;;
3573;SDS011;1801;51.050;6.246;2023-03-14T11:03:13;4.93;;;2.75;;
3573;SDS011;1801;51.050;6.246;2023-03-14T11:08:08;2.88;;;1.90;;
3573;SDS011;1801;51.050;6.246;2023-03-14T11:10:38;2.13;;;1.20;;
3573;SDS011;1801;51.050;6.246;2023-03-14T11:13:11;0.95;;;0.65;;
3573;SDS011;1801;51.050;6.246;2023-03-14T11:20:45;0.75;;;0.70;;
3573;SDS011;1801;51.050;6.246;2023-03-14T11:30:36;4.73;;;1.00;;
3573;SDS011;1801;51.050;6.246;2023-03-14T11:33:07;1.13;;;1.02;;
3573;SDS011;1801;51.050;6.246;2023-03-14T11:35:34;2.33;;;1.20;;
3573;SDS011;1801;51.050;6.246;2023-03-14T11:38:18;3.85;;;0.88;;
3573;SDS011;1801;51.050;6.246;2023-03-14T11:40:45;2.40;;;1.15;;
3573;SDS011;1801;51.050;6.246;2023-03-14T11:43:13;1.58;;;1.02;;
3573;SDS011;1801;51.050;6.246;2023-03-14T11:45:41;1.03;;;0.90;;
3573;SDS011;1801;51.050;6.246;2023-03-14T11:50:31;1.67;;;1.00;;
3573;SDS011;1801;51.050;6.246;2023-03-14T11:53:19;2.28;;;1.10;;
3573;SDS011;1801;51.050;6.246;2023-03-14T11:55:43;3.38;;;1.33;;
3573;SDS011;1801;51.050;6.246;2023-03-14T12:00:35;8.97;;;2.30;;
3573;SDS011;1801;51.050;6.246;2023-03-14T12:05:48;3.35;;;1.65;;
3573;SDS011;1801;51.050;6.246;2023-03-14T12:08:34;3.42;;;1.38;;
3573;SDS011;1801;51.050;6.246;2023-03-14T12:11:10;4.13;;;1.10;;
3573;SDS011;1801;51.050;6.246;2023-03-14T12:13:39;9.07;;;1.30;;
3573;SDS011;1801;51.050;6.246;2023-03-14T12:16:05;5.03;;;1.20;;
3573;SDS011;1801;51.050;6.246;2023-03-14T12:18:35;3.38;;;1.40;;
3573;SDS011;1801;51.050;6.246;2023-03-14T12:21:04;14.30;;;1.97;;
3573;SDS011;1801;51.050;6.246;2023-03-14T12:23:42;3.80;;;1.92;;
3573;SDS011;1801;51.050;6.246;2023-03-14T12:28:36;5.18;;;1.15;;
3573;SDS011;1801;51.050;6.246;2023-03-14T12:34:00;5.07;;;1.70;;
3573;SDS011;1801;51.050;6.246;2023-03-14T12:41:44;9.47;;;1.60;;
3573;SDS011;1801;51.050;6.246;2023-03-14T12:46:56;3.83;;;1.70;;
3573;SDS011;1801;51.050;6.246;2023-03-14T12:49:21;8.80;;;2.50;;
3573;SDS011;1801;51.050;6.246;2023-03-14T12:51:58;13.10;;;2.97;;
3573;SDS011;1801;51.050;6.246;2023-03-14T12:59:27;7.40;;;1.60;;
3573;SDS011;1801;51.050;6.246;2023-03-14T13:01:54;10.05;;;1.92;;
3573;SDS011;1801;51.050;6.246;2023-03-14T13:04:25;5.70;;;0.97;;
3573;SDS011;1801;51.050;6.246;2023-03-14T13:06:52;1.88;;;1.30;;
3573;SDS011;1801;51.050;6.246;2023-03-14T13:14:28;18.05;;;2.60;;
3573;SDS011;1801;51.050;6.246;2023-03-14T13:16:53;10.75;;;1.30;;
3573;SDS011;1801;51.050;6.246;2023-03-14T13:19:20;8.60;;;2.33;;
3573;SDS011;1801;51.050;6.246;2023-03-14T13:21:46;10.07;;;2.45;;
3573;SDS011;1801;51.050;6.246;2023-03-14T13:24:22;8.10;;;1.87;;
3573;SDS011;1801;51.050;6.246;2023-03-14T13:26:47;10.40;;;2.33;;
3573;SDS011;1801;51.050;6.246;2023-03-14T13:31:38;15.35;;;2.85;;
3573;SDS011;1801;51.050;6.246;2023-03-14T13:34:09;15.73;;;3.33;;
3573;SDS011;1801;51.050;6.246;2023-03-14T13:36:35;18.55;;;2.55;;
3573;SDS011;1801;51.050;6.246;2023-03-14T13:39:01;8.13;;;2.10;;
3573;SDS011;1801;51.050;6.246;2023-03-14T13:41:27;23.73;;;3.95;;
3573;SDS011;1801;51.050;6.246;2023-03-14T13:43:58;19.03;;;2.40;;
3573;SDS011;1801;51.050;6.246;2023-03-14T13:46:25;17.00;;;2.63;;
3573;SDS011;1801;51.050;6.246;2023-03-14T13:48:57;17.13;;;2.60;;
3573;SDS011;1801;51.050;6.246;2023-03-14T13:51:23;21.85;;;2.97;;
3573;SDS011;1801;51.050;6.246;2023-03-14T13:53:51;11.07;;;3.60;;
3573;SDS011;1801;51.050;6.246;2023-03-14T13:56:19;3.65;;;1.40;;
3573;SDS011;1801;51.050;6.246;2023-03-14T13:58:46;11.85;;;2.40;;
3573;SDS011;1801;51.050;6.246;2023-03-14T14:03:49;9.70;;;2.33;;
3573;SDS011;1801;51.050;6.246;2023-03-14T14:08:47;11.50;;;1.92;;
3573;SDS011;1801;51.050;6.246;2023-03-14T14:11:17;14.97;;;2.00;;
3573;SDS011;1801;51.050;6.246;2023-03-14T14:13:43;3.47;;;1.80;;
3573;SDS011;1801;51.050;6.246;2023-03-14T14:16:09;6.30;;;1.70;;
3573;SDS011;1801;51.050;6.246;2023-03-14T14:18:34;16.20;;;2.23;;
3573;SDS011;1801;51.050;6.246;2023-03-14T14:21:00;8.53;;;1.83;;
3573;SDS011;1801;51.050;6.246;2023-03-14T14:23:26;10.70;;;2.30;;
3573;SDS011;1801;51.050;6.246;2023-03-14T14:25:53;9.23;;;1.50;;
3573;SDS011;1801;51.050;6.246;2023-03-14T14:30:47;13.02;;;2.97;;
3573;SDS011;1801;51.050;6.246;2023-03-14T14:33:24;13.65;;;3.63;;
3573;SDS011;1801;51.050;6.246;2023-03-14T14:35:50;12.40;;;3.47;;
3573;SDS011;1801;51.050;6.246;2023-03-14T14:38:16;19.35;;;2.47;;
3573;SDS011;1801;51.050;6.246;2023-03-14T14:40:45;27.67;;;3.73;;
3573;SDS011;1801;51.050;6.246;2023-03-14T14:43:11;7.72;;;2.83;;
3573;SDS011;1801;51.050;6.246;2023-03-14T14:45:39;16.00;;;3.67;;
3573;SDS011;1801;51.050;6.246;2023-03-14T14:48:09;8.30;;;1.85;;
3573;SDS011;1801;51.050;6.246;2023-03-14T14:50:37;17.42;;;3.03;;
3573;SDS011;1801;51.050;6.246;2023-03-14T14:53:26;11.83;;;3.50;;
3573;SDS011;1801;51.050;6.246;2023-03-14T14:55:51;9.65;;;2.20;;
3573;SDS011;1801;51.050;6.246;2023-03-14T14:58:24;14.65;;;2.50;;
3573;SDS011;1801;51.050;6.246;2023-03-14T15:03:18;9.02;;;2.40;;
3573;SDS011;1801;51.050;6.246;2023-03-14T15:05:43;14.00;;;2.47;;
3573;SDS011;1801;51.050;6.246;2023-03-14T15:08:09;22.73;;;2.80;;
3573;SDS011;1801;51.050;6.246;2023-03-14T15:10:34;9.33;;;1.63;;
3573;SDS011;1801;51.050;6.246;2023-03-14T15:12:59;12.40;;;2.03;;
3573;SDS011;1801;51.050;6.246;2023-03-14T15:15:25;18.43;;;2.60;;
3573;SDS011;1801;51.050;6.246;2023-03-14T15:17:50;16.80;;;2.50;;
3573;SDS011;1801;51.050;6.246;2023-03-14T15:20:16;14.10;;;3.30;;
3573;SDS011;1801;51.050;6.246;2023-03-14T15:22:41;16.33;;;3.28;;
3573;SDS011;1801;51.050;6.246;2023-03-14T15:25:06;11.80;;;3.77;;
3573;SDS011;1801;51.050;6.246;2023-03-14T15:27:32;5.70;;;2.00;;
3573;SDS011;1801;51.050;6.246;2023-03-14T15:29:58;12.20;;;2.73;;
3573;SDS011;1801;51.050;6.246;2023-03-14T15:32:24;15.13;;;2.93;;
3573;SDS011;1801;51.050;6.246;2023-03-14T15:34:52;4.47;;;1.52;;
3573;SDS011;1801;51.050;6.246;2023-03-14T15:37:17;8.60;;;2.27;;
3573;SDS011;1801;51.050;6.246;2023-03-14T15:39:42;10.20;;;2.53;;
3573;SDS011;1801;51.050;6.246;2023-03-14T15:42:07;7.63;;;2.10;;
3573;SDS011;1801;51.050;6.246;2023-03-14T15:44:33;14.03;;;2.27;;
3573;SDS011;1801;51.050;6.246;2023-03-14T15:46:58;4.93;;;1.30;;
3573;SDS011;1801;51.050;6.246;2023-03-14T15:49:23;7.50;;;1.00;;
3573;SDS011;1801;51.050;6.246;2023-03-14T15:51:48;8.67;;;2.00;;
3573;SDS011;1801;51.050;6.246;2023-03-14T15:54:14;4.43;;;1.50;;
3573;SDS011;1801;51.050;6.246;2023-03-14T15:56:39;5.07;;;1.03;;
3573;SDS011;1801;51.050;6.246;2023-03-14T15:59:04;8.20;;;2.20;;
3573;SDS011;1801;51.050;6.246;2023-03-14T16:01:29;5.07;;;1.70;;
3573;SDS011;1801;51.050;6.246;2023-03-14T16:03:54;4.97;;;1.30;;
3573;SDS011;1801;51.050;6.246;2023-03-14T16:06:20;29.57;;;7.80;;
3573;SDS011;1801;51.050;6.246;2023-03-14T16:08:45;13.77;;;3.50;;
3573;SDS011;1801;51.050;6.246;2023-03-14T16:11:11;8.83;;;2.50;;
3573;SDS011;1801;51.050;6.246;2023-03-14T16:13:37;4.70;;;1.77;;
3573;SDS011;1801;51.050;6.246;2023-03-14T16:16:03;4.73;;;1.37;;